Trimbelle, Wisconsin
Current Conditions -  °F | °C
As of 2:11 AM on Monday 26 Jan 2015 (Local Time) from KRGK Reporting Station
Overcast Overcast  
Wind Chill: 21°   Ceiling: 9500
Heat Index: 21°   Visibility: 10mi
Dew Point: 18°   Wind: 0mph
Humidity: 86%   Direction: NA
Pressure: 29.92"   Gusts: NA
Location:  44.7206°N, 92.4859°W
Report Text: KRGK 260811Z AUTO 00000KT 10SM SCT024 BKN095 OVC110 M06/M08 A2992 RMK AO2
Loading
Personal Weather Stations






























Interactive Weather Map New forecast layout! Learn more

10-Day Weather Forecast

Advertisements
Track Severe Weather on mobile